sensor_id;sensor_type;location;lat;lon;timestamp;temperature;humidity
4501;DHT22;2263;54.654;9.410;2023-07-20T00:02:18;17.70;73.70
4501;DHT22;2263;54.654;9.410;2023-07-20T00:04:46;17.70;73.60
4501;DHT22;2263;54.654;9.410;2023-07-20T00:07:13;17.70;73.80
4501;DHT22;2263;54.654;9.410;2023-07-20T00:09:41;17.70;73.60
4501;DHT22;2263;54.654;9.410;2023-07-20T00:12:08;17.70;73.60
4501;DHT22;2263;54.654;9.410;2023-07-20T00:14:36;17.60;73.60
4501;DHT22;2263;54.654;9.410;2023-07-20T00:17:04;17.60;73.60
4501;DHT22;2263;54.654;9.410;2023-07-20T00:19:32;17.60;73.60
4501;DHT22;2263;54.654;9.410;2023-07-20T00:21:59;17.60;74.10
4501;DHT22;2263;54.654;9.410;2023-07-20T00:24:27;17.60;73.60
4501;DHT22;2263;54.654;9.410;2023-07-20T00:26:54;17.60;73.30
4501;DHT22;2263;54.654;9.410;2023-07-20T00:29:22;17.50;73.30
4501;DHT22;2263;54.654;9.410;2023-07-20T00:31:50;17.50;73.20
4501;DHT22;2263;54.654;9.410;2023-07-20T00:34:18;17.50;73.20
4501;DHT22;2263;54.654;9.410;2023-07-20T00:36:45;17.40;73.20
4501;DHT22;2263;54.654;9.410;2023-07-20T00:39:13;17.40;73.20
4501;DHT22;2263;54.654;9.410;2023-07-20T00:41:41;17.40;73.20
4501;DHT22;2263;54.654;9.410;2023-07-20T00:44:08;17.40;73.20
4501;DHT22;2263;54.654;9.410;2023-07-20T00:46:36;17.40;73.20
4501;DHT22;2263;54.654;9.410;2023-07-20T00:49:04;17.40;73.30
4501;DHT22;2263;54.654;9.410;2023-07-20T00:51:33;17.40;73.20
4501;DHT22;2263;54.654;9.410;2023-07-20T00:54:01;17.30;73.00
4501;DHT22;2263;54.654;9.410;2023-07-20T00:56:30;17.40;73.20
4501;DHT22;2263;54.654;9.410;2023-07-20T00:58:57;17.40;73.20
4501;DHT22;2263;54.654;9.410;2023-07-20T01:01:25;17.30;73.20
4501;DHT22;2263;54.654;9.410;2023-07-20T01:03:53;17.30;73.00
4501;DHT22;2263;54.654;9.410;2023-07-20T01:06:57;17.20;72.80
4501;DHT22;2263;54.654;9.410;2023-07-20T01:09:44;17.20;72.80
4501;DHT22;2263;54.654;9.410;2023-07-20T01:12:30;17.20;72.80
4501;DHT22;2263;54.654;9.410;2023-07-20T01:15:00;17.20;72.70
4501;DHT22;2263;54.654;9.410;2023-07-20T01:17:28;17.20;73.00
4501;DHT22;2263;54.654;9.410;2023-07-20T01:19:56;17.20;72.60
4501;DHT22;2263;54.654;9.410;2023-07-20T01:22:47;17.10;72.50
4501;DHT22;2263;54.654;9.410;2023-07-20T01:31:26;17.10;72.40
4501;DHT22;2263;54.654;9.410;2023-07-20T01:33:57;17.10;72.50
4501;DHT22;2263;54.654;9.410;2023-07-20T01:36:28;17.00;72.40
4501;DHT22;2263;54.654;9.410;2023-07-20T01:38:56;17.00;72.50
4501;DHT22;2263;54.654;9.410;2023-07-20T01:41:24;17.00;72.40
4501;DHT22;2263;54.654;9.410;2023-07-20T01:43:52;17.00;72.20
4501;DHT22;2263;54.654;9.410;2023-07-20T01:46:19;17.00;72.20
4501;DHT22;2263;54.654;9.410;2023-07-20T01:48:48;17.00;72.10
4501;DHT22;2263;54.654;9.410;2023-07-20T01:51:18;16.90;72.30
4501;DHT22;2263;54.654;9.410;2023-07-20T01:53:46;16.90;72.00
4501;DHT22;2263;54.654;9.410;2023-07-20T01:56:13;16.90;72.20
4501;DHT22;2263;54.654;9.410;2023-07-20T01:58:41;16.90;72.40
4501;DHT22;2263;54.654;9.410;2023-07-20T02:01:09;16.80;72.20
4501;DHT22;2263;54.654;9.410;2023-07-20T02:03:36;16.80;72.10
4501;DHT22;2263;54.654;9.410;2023-07-20T02:06:04;16.80;72.00
4501;DHT22;2263;54.654;9.410;2023-07-20T02:08:31;16.80;72.20
4501;DHT22;2263;54.654;9.410;2023-07-20T02:10:59;16.80;72.30
4501;DHT22;2263;54.654;9.410;2023-07-20T02:13:27;16.80;72.20
4501;DHT22;2263;54.654;9.410;2023-07-20T02:15:54;16.80;72.20
4501;DHT22;2263;54.654;9.410;2023-07-20T02:18:22;16.70;72.10
4501;DHT22;2263;54.654;9.410;2023-07-20T02:20:53;16.70;72.00
4501;DHT22;2263;54.654;9.410;2023-07-20T02:23:21;16.70;72.10
4501;DHT22;2263;54.654;9.410;2023-07-20T02:25:49;16.70;72.10
4501;DHT22;2263;54.654;9.410;2023-07-20T02:28:16;16.70;72.90
4501;DHT22;2263;54.654;9.410;2023-07-20T02:30:44;16.70;72.30
4501;DHT22;2263;54.654;9.410;2023-07-20T02:33:11;16.70;72.40
4501;DHT22;2263;54.654;9.410;2023-07-20T02:35:42;16.70;72.30
4501;DHT22;2263;54.654;9.410;2023-07-20T02:38:10;16.70;72.50
4501;DHT22;2263;54.654;9.410;2023-07-20T02:40:37;16.70;72.30
4501;DHT22;2263;54.654;9.410;2023-07-20T02:43:05;16.60;72.40
4501;DHT22;2263;54.654;9.410;2023-07-20T02:45:32;16.60;72.40
4501;DHT22;2263;54.654;9.410;2023-07-20T02:48:00;16.60;72.30
4501;DHT22;2263;54.654;9.410;2023-07-20T02:50:28;16.60;72.40
4501;DHT22;2263;54.654;9.410;2023-07-20T02:52:55;16.50;72.10
4501;DHT22;2263;54.654;9.410;2023-07-20T02:55:23;16.50;72.20
4501;DHT22;2263;54.654;9.410;2023-07-20T02:57:51;16.50;72.30
4501;DHT22;2263;54.654;9.410;2023-07-20T03:00:18;16.50;72.40
4501;DHT22;2263;54.654;9.410;2023-07-20T03:02:51;16.50;72.30
4501;DHT22;2263;54.654;9.410;2023-07-20T03:05:23;16.50;72.40
4501;DHT22;2263;54.654;9.410;2023-07-20T03:07:55;16.50;72.50
4501;DHT22;2263;54.654;9.410;2023-07-20T03:10:23;16.50;72.30
4501;DHT22;2263;54.654;9.410;2023-07-20T03:12:51;16.40;72.20
4501;DHT22;2263;54.654;9.410;2023-07-20T03:15:18;16.40;72.40
4501;DHT22;2263;54.654;9.410;2023-07-20T03:17:46;16.40;72.30
4501;DHT22;2263;54.654;9.410;2023-07-20T03:20:14;16.40;72.20
4501;DHT22;2263;54.654;9.410;2023-07-20T03:22:41;16.40;72.40
4501;DHT22;2263;54.654;9.410;2023-07-20T03:25:09;16.30;72.40
4501;DHT22;2263;54.654;9.410;2023-07-20T03:27:37;16.40;72.50
4501;DHT22;2263;54.654;9.410;2023-07-20T03:30:05;16.30;72.40
4501;DHT22;2263;54.654;9.410;2023-07-20T03:32:34;16.40;72.50
4501;DHT22;2263;54.654;9.410;2023-07-20T03:35:02;16.30;72.50
4501;DHT22;2263;54.654;9.410;2023-07-20T03:37:29;16.30;73.10
4501;DHT22;2263;54.654;9.410;2023-07-20T03:39:57;16.30;72.40
4501;DHT22;2263;54.654;9.410;2023-07-20T03:42:25;16.30;72.50
4501;DHT22;2263;54.654;9.410;2023-07-20T03:44:52;16.30;72.70
4501;DHT22;2263;54.654;9.410;2023-07-20T03:47:20;16.30;72.50
4501;DHT22;2263;54.654;9.410;2023-07-20T03:49:48;16.20;72.50
4501;DHT22;2263;54.654;9.410;2023-07-20T03:52:15;16.30;72.70
4501;DHT22;2263;54.654;9.410;2023-07-20T03:54:43;16.30;72.80
4501;DHT22;2263;54.654;9.410;2023-07-20T03:57:11;16.20;72.60
4501;DHT22;2263;54.654;9.410;2023-07-20T03:59:39;16.20;73.30
4501;DHT22;2263;54.654;9.410;2023-07-20T04:02:06;16.20;72.60
4501;DHT22;2263;54.654;9.410;2023-07-20T04:04:34;16.20;72.70
4501;DHT22;2263;54.654;9.410;2023-07-20T04:07:02;16.20;72.70
4501;DHT22;2263;54.654;9.410;2023-07-20T04:09:31;16.20;72.70
4501;DHT22;2263;54.654;9.410;2023-07-20T04:11:59;16.10;72.70
4501;DHT22;2263;54.654;9.410;2023-07-20T04:14:27;16.10;72.60
4501;DHT22;2263;54.654;9.410;2023-07-20T04:16:55;16.20;72.80
4501;DHT22;2263;54.654;9.410;2023-07-20T04:19:22;16.10;72.80
4501;DHT22;2263;54.654;9.410;2023-07-20T04:21:50;16.10;72.70
4501;DHT22;2263;54.654;9.410;2023-07-20T04:24:18;16.10;72.90
4501;DHT22;2263;54.654;9.410;2023-07-20T04:26:45;16.10;72.90
4501;DHT22;2263;54.654;9.410;2023-07-20T04:29:13;16.10;73.00
4501;DHT22;2263;54.654;9.410;2023-07-20T04:31:40;16.10;72.90
4501;DHT22;2263;54.654;9.410;2023-07-20T04:34:08;16.10;73.00
4501;DHT22;2263;54.654;9.410;2023-07-20T04:36:36;16.10;73.10
4501;DHT22;2263;54.654;9.410;2023-07-20T04:39:04;16.00;73.00
4501;DHT22;2263;54.654;9.410;2023-07-20T04:41:40;16.00;73.10
4501;DHT22;2263;54.654;9.410;2023-07-20T04:44:08;16.10;73.20
4501;DHT22;2263;54.654;9.410;2023-07-20T04:46:36;16.00;73.10
4501;DHT22;2263;54.654;9.410;2023-07-20T04:49:04;16.00;73.30
4501;DHT22;2263;54.654;9.410;2023-07-20T04:51:32;16.00;73.30
4501;DHT22;2263;54.654;9.410;2023-07-20T04:53:59;16.00;73.40
4501;DHT22;2263;54.654;9.410;2023-07-20T04:56:27;16.00;73.50
4501;DHT22;2263;54.654;9.410;2023-07-20T04:58:54;16.00;73.60
4501;DHT22;2263;54.654;9.410;2023-07-20T05:01:23;16.00;73.70
4501;DHT22;2263;54.654;9.410;2023-07-20T05:03:50;16.00;73.90
4501;DHT22;2263;54.654;9.410;2023-07-20T05:06:18;16.00;74.60
4501;DHT22;2263;54.654;9.410;2023-07-20T05:08:46;16.00;74.20
4501;DHT22;2263;54.654;9.410;2023-07-20T05:11:14;16.00;74.40
4501;DHT22;2263;54.654;9.410;2023-07-20T05:13:41;16.00;74.50
4501;DHT22;2263;54.654;9.410;2023-07-20T05:16:09;16.00;74.70
4501;DHT22;2263;54.654;9.410;2023-07-20T05:18:37;16.00;74.70
4501;DHT22;2263;54.654;9.410;2023-07-20T05:21:05;16.00;74.50
4501;DHT22;2263;54.654;9.410;2023-07-20T05:23:33;16.00;74.90
4501;DHT22;2263;54.654;9.410;2023-07-20T05:26:01;16.00;74.80
4501;DHT22;2263;54.654;9.410;2023-07-20T05:28:28;16.00;74.90
4501;DHT22;2263;54.654;9.410;2023-07-20T05:30:56;16.00;75.00
4501;DHT22;2263;54.654;9.410;2023-07-20T05:33:27;16.00;75.10
4501;DHT22;2263;54.654;9.410;2023-07-20T05:35:54;16.00;75.00
4501;DHT22;2263;54.654;9.410;2023-07-20T05:38:22;16.00;75.10
4501;DHT22;2263;54.654;9.410;2023-07-20T05:40:50;16.00;75.30
4501;DHT22;2263;54.654;9.410;2023-07-20T05:43:17;16.00;75.20
4501;DHT22;2263;54.654;9.410;2023-07-20T05:45:45;16.00;75.30
4501;DHT22;2263;54.654;9.410;2023-07-20T05:48:13;16.00;75.40
4501;DHT22;2263;54.654;9.410;2023-07-20T05:50:43;16.00;75.50
4501;DHT22;2263;54.654;9.410;2023-07-20T05:53:11;16.00;75.30
4501;DHT22;2263;54.654;9.410;2023-07-20T05:55:39;16.00;75.60
4501;DHT22;2263;54.654;9.410;2023-07-20T05:58:07;16.10;75.70
4501;DHT22;2263;54.654;9.410;2023-07-20T06:00:35;16.10;75.80
4501;DHT22;2263;54.654;9.410;2023-07-20T06:03:03;16.10;75.80
4501;DHT22;2263;54.654;9.410;2023-07-20T06:05:30;16.10;76.20
4501;DHT22;2263;54.654;9.410;2023-07-20T06:07:58;16.10;75.90
4501;DHT22;2263;54.654;9.410;2023-07-20T06:10:27;16.10;76.00
4501;DHT22;2263;54.654;9.410;2023-07-20T06:12:55;16.10;76.40
4501;DHT22;2263;54.654;9.410;2023-07-20T06:15:36;16.10;76.20
4501;DHT22;2263;54.654;9.410;2023-07-20T06:18:04;16.10;76.30
4501;DHT22;2263;54.654;9.410;2023-07-20T06:20:31;16.10;76.30
4501;DHT22;2263;54.654;9.410;2023-07-20T06:22:59;16.10;76.70
4501;DHT22;2263;54.654;9.410;2023-07-20T06:25:26;16.20;77.30
4501;DHT22;2263;54.654;9.410;2023-07-20T06:27:55;16.20;77.30
4501;DHT22;2263;54.654;9.410;2023-07-20T06:30:24;16.20;76.80
4501;DHT22;2263;54.654;9.410;2023-07-20T06:32:52;16.20;77.00
4501;DHT22;2263;54.654;9.410;2023-07-20T06:35:20;16.20;76.90
4501;DHT22;2263;54.654;9.410;2023-07-20T06:37:48;16.20;77.00
4501;DHT22;2263;54.654;9.410;2023-07-20T06:40:16;16.20;76.90
4501;DHT22;2263;54.654;9.410;2023-07-20T06:42:46;16.20;76.90
4501;DHT22;2263;54.654;9.410;2023-07-20T06:45:17;16.20;77.50
4501;DHT22;2263;54.654;9.410;2023-07-20T06:47:44;16.20;77.00
4501;DHT22;2263;54.654;9.410;2023-07-20T06:50:12;16.20;77.20
4501;DHT22;2263;54.654;9.410;2023-07-20T06:52:44;16.20;77.30
4501;DHT22;2263;54.654;9.410;2023-07-20T06:55:13;16.30;77.70
4501;DHT22;2263;54.654;9.410;2023-07-20T06:57:41;16.30;77.60
4501;DHT22;2263;54.654;9.410;2023-07-20T07:00:15;16.30;77.50
4501;DHT22;2263;54.654;9.410;2023-07-20T07:02:42;16.30;77.60
4501;DHT22;2263;54.654;9.410;2023-07-20T07:05:12;16.30;77.80
4501;DHT22;2263;54.654;9.410;2023-07-20T07:07:47;16.30;77.60
4501;DHT22;2263;54.654;9.410;2023-07-20T07:10:16;16.30;77.30
4501;DHT22;2263;54.654;9.410;2023-07-20T07:12:44;16.40;77.80
4501;DHT22;2263;54.654;9.410;2023-07-20T07:15:11;16.40;77.70
4501;DHT22;2263;54.654;9.410;2023-07-20T07:17:39;16.40;77.90
4501;DHT22;2263;54.654;9.410;2023-07-20T07:20:08;16.40;77.80
4501;DHT22;2263;54.654;9.410;2023-07-20T07:22:47;16.40;77.90
4501;DHT22;2263;54.654;9.410;2023-07-20T07:25:20;16.40;77.90
4501;DHT22;2263;54.654;9.410;2023-07-20T07:27:53;16.40;77.70
4501;DHT22;2263;54.654;9.410;2023-07-20T07:30:21;16.50;78.00
4501;DHT22;2263;54.654;9.410;2023-07-20T07:32:48;16.50;78.00
4501;DHT22;2263;54.654;9.410;2023-07-20T07:35:16;16.50;78.00
4501;DHT22;2263;54.654;9.410;2023-07-20T07:37:44;16.50;78.00
4501;DHT22;2263;54.654;9.410;2023-07-20T07:40:33;16.50;78.10
4501;DHT22;2263;54.654;9.410;2023-07-20T07:43:01;16.60;78.20
4501;DHT22;2263;54.654;9.410;2023-07-20T07:45:30;16.60;78.10
4501;DHT22;2263;54.654;9.410;2023-07-20T07:47:57;16.60;77.90
4501;DHT22;2263;54.654;9.410;2023-07-20T07:50:25;16.60;78.00
4501;DHT22;2263;54.654;9.410;2023-07-20T07:52:54;16.60;78.00
4501;DHT22;2263;54.654;9.410;2023-07-20T07:55:22;16.60;78.20
4501;DHT22;2263;54.654;9.410;2023-07-20T07:57:50;16.70;78.30
4501;DHT22;2263;54.654;9.410;2023-07-20T08:00:18;16.70;78.10
4501;DHT22;2263;54.654;9.410;2023-07-20T08:02:47;16.70;78.10
4501;DHT22;2263;54.654;9.410;2023-07-20T08:05:18;16.80;78.70
4501;DHT22;2263;54.654;9.410;2023-07-20T08:07:45;16.80;78.40
4501;DHT22;2263;54.654;9.410;2023-07-20T08:10:13;16.80;78.60
4501;DHT22;2263;54.654;9.410;2023-07-20T08:12:41;16.90;78.50
4501;DHT22;2263;54.654;9.410;2023-07-20T08:15:11;16.90;78.80
4501;DHT22;2263;54.654;9.410;2023-07-20T08:17:41;17.00;78.60
4501;DHT22;2263;54.654;9.410;2023-07-20T08:20:13;17.00;78.50
4501;DHT22;2263;54.654;9.410;2023-07-20T08:22:42;17.00;78.70
4501;DHT22;2263;54.654;9.410;2023-07-20T08:25:10;17.10;78.80
4501;DHT22;2263;54.654;9.410;2023-07-20T08:27:38;17.10;78.70
4501;DHT22;2263;54.654;9.410;2023-07-20T08:30:07;17.10;78.70
4501;DHT22;2263;54.654;9.410;2023-07-20T08:32:35;17.10;79.30
4501;DHT22;2263;54.654;9.410;2023-07-20T08:35:03;17.00;78.70
4501;DHT22;2263;54.654;9.410;2023-07-20T08:37:32;17.00;78.90
4501;DHT22;2263;54.654;9.410;2023-07-20T08:40:00;17.00;79.00
4501;DHT22;2263;54.654;9.410;2023-07-20T08:42:28;17.00;79.30
4501;DHT22;2263;54.654;9.410;2023-07-20T08:44:56;17.00;79.60
4501;DHT22;2263;54.654;9.410;2023-07-20T08:47:25;17.00;79.40
4501;DHT22;2263;54.654;9.410;2023-07-20T08:49:55;17.00;79.20
4501;DHT22;2263;54.654;9.410;2023-07-20T08:52:22;17.10;79.10
4501;DHT22;2263;54.654;9.410;2023-07-20T08:54:52;17.20;79.90
4501;DHT22;2263;54.654;9.410;2023-07-20T08:57:21;17.20;79.80
4501;DHT22;2263;54.654;9.410;2023-07-20T08:59:50;17.20;79.80
4501;DHT22;2263;54.654;9.410;2023-07-20T09:02:20;17.30;79.90
4501;DHT22;2263;54.654;9.410;2023-07-20T09:04:52;17.30;79.80
4501;DHT22;2263;54.654;9.410;2023-07-20T09:07:20;17.40;79.80
4501;DHT22;2263;54.654;9.410;2023-07-20T09:09:48;17.40;80.20
4501;DHT22;2263;54.654;9.410;2023-07-20T09:12:16;17.40;79.60
4501;DHT22;2263;54.654;9.410;2023-07-20T09:14:44;17.50;79.60
4501;DHT22;2263;54.654;9.410;2023-07-20T09:17:15;17.50;79.50
4501;DHT22;2263;54.654;9.410;2023-07-20T09:19:50;17.50;79.40
4501;DHT22;2263;54.654;9.410;2023-07-20T09:22:18;17.60;79.60
4501;DHT22;2263;54.654;9.410;2023-07-20T09:24:45;17.60;79.30
4501;DHT22;2263;54.654;9.410;2023-07-20T09:27:14;17.70;79.30
4501;DHT22;2263;54.654;9.410;2023-07-20T09:29:51;17.70;79.20
4501;DHT22;2263;54.654;9.410;2023-07-20T09:32:20;17.70;79.40
4501;DHT22;2263;54.654;9.410;2023-07-20T09:34:52;17.70;79.30
4501;DHT22;2263;54.654;9.410;2023-07-20T09:37:23;17.70;79.10
4501;DHT22;2263;54.654;9.410;2023-07-20T09:39:52;17.80;79.10
4501;DHT22;2263;54.654;9.410;2023-07-20T09:42:26;17.80;79.00
4501;DHT22;2263;54.654;9.410;2023-07-20T09:44:57;17.80;79.20
4501;DHT22;2263;54.654;9.410;2023-07-20T09:47:25;17.90;79.00
4501;DHT22;2263;54.654;9.410;2023-07-20T09:49:58;17.90;78.80
4501;DHT22;2263;54.654;9.410;2023-07-20T09:52:30;17.90;78.70
4501;DHT22;2263;54.654;9.410;2023-07-20T09:55:02;18.00;78.60
4501;DHT22;2263;54.654;9.410;2023-07-20T09:57:30;18.00;78.40
4501;DHT22;2263;54.654;9.410;2023-07-20T09:59:58;18.00;78.30
4501;DHT22;2263;54.654;9.410;2023-07-20T10:02:34;18.00;78.20
4501;DHT22;2263;54.654;9.410;2023-07-20T10:05:04;18.10;78.20
4501;DHT22;2263;54.654;9.410;2023-07-20T10:07:33;18.10;78.10
4501;DHT22;2263;54.654;9.410;2023-07-20T10:10:04;18.10;78.00
4501;DHT22;2263;54.654;9.410;2023-07-20T10:12:33;18.20;77.80
4501;DHT22;2263;54.654;9.410;2023-07-20T10:15:31;18.20;77.60
4501;DHT22;2263;54.654;9.410;2023-07-20T10:18:09;18.20;77.30
4501;DHT22;2263;54.654;9.410;2023-07-20T10:20:40;18.30;77.50
4501;DHT22;2263;54.654;9.410;2023-07-20T10:23:14;18.30;77.20
4501;DHT22;2263;54.654;9.410;2023-07-20T10:25:42;18.30;77.30
4501;DHT22;2263;54.654;9.410;2023-07-20T10:28:13;18.30;77.10
4501;DHT22;2263;54.654;9.410;2023-07-20T10:30:41;18.40;77.20
4501;DHT22;2263;54.654;9.410;2023-07-20T10:33:09;18.40;76.90
4501;DHT22;2263;54.654;9.410;2023-07-20T10:35:54;18.50;76.90
4501;DHT22;2263;54.654;9.410;2023-07-20T10:41:27;18.60;77.10
4501;DHT22;2263;54.654;9.410;2023-07-20T10:44:00;18.60;77.10
4501;DHT22;2263;54.654;9.410;2023-07-20T10:49:07;18.60;76.70
4501;DHT22;2263;54.654;9.410;2023-07-20T10:51:47;18.60;76.60
4501;DHT22;2263;54.654;9.410;2023-07-20T10:56:48;18.70;76.50
4501;DHT22;2263;54.654;9.410;2023-07-20T10:59:20;18.70;76.50
4501;DHT22;2263;54.654;9.410;2023-07-20T11:01:48;18.80;76.50
4501;DHT22;2263;54.654;9.410;2023-07-20T11:04:19;18.80;77.00
4501;DHT22;2263;54.654;9.410;2023-07-20T11:07:04;18.70;76.30
4501;DHT22;2263;54.654;9.410;2023-07-20T11:09:38;18.70;76.20
4501;DHT22;2263;54.654;9.410;2023-07-20T11:12:18;18.70;76.20
4501;DHT22;2263;54.654;9.410;2023-07-20T11:14:56;18.80;76.30
4501;DHT22;2263;54.654;9.410;2023-07-20T11:17:31;18.80;76.20
4501;DHT22;2263;54.654;9.410;2023-07-20T11:20:00;18.80;76.00
4501;DHT22;2263;54.654;9.410;2023-07-20T11:22:31;18.80;76.00
4501;DHT22;2263;54.654;9.410;2023-07-20T11:24:59;18.80;75.80
4501;DHT22;2263;54.654;9.410;2023-07-20T11:27:27;18.80;75.70
4501;DHT22;2263;54.654;9.410;2023-07-20T11:29:56;18.80;75.60
4501;DHT22;2263;54.654;9.410;2023-07-20T11:32:24;18.80;75.70
4501;DHT22;2263;54.654;9.410;2023-07-20T11:34:52;18.80;76.40
4501;DHT22;2263;54.654;9.410;2023-07-20T11:37:19;18.70;76.50
4501;DHT22;2263;54.654;9.410;2023-07-20T11:39:47;18.80;76.80
4501;DHT22;2263;54.654;9.410;2023-07-20T11:42:15;18.80;76.70
4501;DHT22;2263;54.654;9.410;2023-07-20T11:44:45;18.90;76.90
4501;DHT22;2263;54.654;9.410;2023-07-20T11:47:19;18.90;77.00
4501;DHT22;2263;54.654;9.410;2023-07-20T11:49:46;19.00;77.10
4501;DHT22;2263;54.654;9.410;2023-07-20T11:52:18;19.00;77.00
4501;DHT22;2263;54.654;9.410;2023-07-20T11:54:46;19.00;77.00
4501;DHT22;2263;54.654;9.410;2023-07-20T11:57:22;19.10;77.00
4501;DHT22;2263;54.654;9.410;2023-07-20T11:59:53;19.10;76.80
4501;DHT22;2263;54.654;9.410;2023-07-20T12:02:27;19.10;77.00
4501;DHT22;2263;54.654;9.410;2023-07-20T12:04:55;19.10;76.90
4501;DHT22;2263;54.654;9.410;2023-07-20T12:07:25;19.10;76.90
4501;DHT22;2263;54.654;9.410;2023-07-20T12:10:05;19.10;76.80
4501;DHT22;2263;54.654;9.410;2023-07-20T12:12:43;19.10;76.70
4501;DHT22;2263;54.654;9.410;2023-07-20T12:15:25;19.10;76.60
4501;DHT22;2263;54.654;9.410;2023-07-20T12:18:00;19.20;76.50
4501;DHT22;2263;54.654;9.410;2023-07-20T12:20:35;19.10;76.30
4501;DHT22;2263;54.654;9.410;2023-07-20T12:23:05;19.20;76.30
4501;DHT22;2263;54.654;9.410;2023-07-20T12:28:12;19.20;76.20
4501;DHT22;2263;54.654;9.410;2023-07-20T12:30:41;19.30;76.30
4501;DHT22;2263;54.654;9.410;2023-07-20T12:33:12;19.40;76.30
4501;DHT22;2263;54.654;9.410;2023-07-20T12:35:43;19.40;76.20
4501;DHT22;2263;54.654;9.410;2023-07-20T12:38:11;19.30;76.10
4501;DHT22;2263;54.654;9.410;2023-07-20T12:40:38;19.40;76.10
4501;DHT22;2263;54.654;9.410;2023-07-20T12:43:08;19.40;76.00
4501;DHT22;2263;54.654;9.410;2023-07-20T12:45:35;19.50;76.00
4501;DHT22;2263;54.654;9.410;2023-07-20T12:48:03;19.50;75.90
4501;DHT22;2263;54.654;9.410;2023-07-20T12:50:31;19.60;76.00
4501;DHT22;2263;54.654;9.410;2023-07-20T12:52:59;19.60;75.70
4501;DHT22;2263;54.654;9.410;2023-07-20T12:55:26;19.70;75.80
4501;DHT22;2263;54.654;9.410;2023-07-20T12:57:54;19.70;75.80
4501;DHT22;2263;54.654;9.410;2023-07-20T13:00:22;19.70;75.60
4501;DHT22;2263;54.654;9.410;2023-07-20T13:02:50;19.70;75.70
4501;DHT22;2263;54.654;9.410;2023-07-20T13:05:35;19.70;75.60
4501;DHT22;2263;54.654;9.410;2023-07-20T13:08:06;19.70;75.30
4501;DHT22;2263;54.654;9.410;2023-07-20T13:10:37;19.70;75.30
4501;DHT22;2263;54.654;9.410;2023-07-20T13:13:07;19.70;75.30
4501;DHT22;2263;54.654;9.410;2023-07-20T13:15:42;19.70;75.30
4501;DHT22;2263;54.654;9.410;2023-07-20T13:18:10;19.70;75.20
4501;DHT22;2263;54.654;9.410;2023-07-20T13:20:37;19.70;75.20
4501;DHT22;2263;54.654;9.410;2023-07-20T13:23:05;19.70;75.20
4501;DHT22;2263;54.654;9.410;2023-07-20T13:25:33;19.70;75.10
4501;DHT22;2263;54.654;9.410;2023-07-20T13:28:00;19.80;75.10
4501;DHT22;2263;54.654;9.410;2023-07-20T13:30:28;19.80;74.80
4501;DHT22;2263;54.654;9.410;2023-07-20T13:32:56;19.80;74.70
4501;DHT22;2263;54.654;9.410;2023-07-20T13:35:24;19.90;74.80
4501;DHT22;2263;54.654;9.410;2023-07-20T13:37:52;19.90;74.70
4501;DHT22;2263;54.654;9.410;2023-07-20T13:40:19;19.90;74.50
4501;DHT22;2263;54.654;9.410;2023-07-20T13:42:47;19.90;74.60
4501;DHT22;2263;54.654;9.410;2023-07-20T13:45:14;19.90;74.60
4501;DHT22;2263;54.654;9.410;2023-07-20T13:47:42;19.90;74.60
4501;DHT22;2263;54.654;9.410;2023-07-20T13:50:13;19.90;75.10
4501;DHT22;2263;54.654;9.410;2023-07-20T13:53:00;19.90;75.30
4501;DHT22;2263;54.654;9.410;2023-07-20T13:55:33;19.90;75.20
4501;DHT22;2263;54.654;9.410;2023-07-20T13:58:06;19.90;75.40
4501;DHT22;2263;54.654;9.410;2023-07-20T14:00:34;19.90;75.40
4501;DHT22;2263;54.654;9.410;2023-07-20T14:03:02;19.90;75.50
4501;DHT22;2263;54.654;9.410;2023-07-20T14:05:33;19.90;75.60
4501;DHT22;2263;54.654;9.410;2023-07-20T14:08:04;19.90;75.60
4501;DHT22;2263;54.654;9.410;2023-07-20T14:10:32;19.90;76.00
4501;DHT22;2263;54.654;9.410;2023-07-20T14:13:20;19.90;77.10
4501;DHT22;2263;54.654;9.410;2023-07-20T14:16:05;19.90;76.70
4501;DHT22;2263;54.654;9.410;2023-07-20T14:18:33;19.90;76.40
4501;DHT22;2263;54.654;9.410;2023-07-20T14:21:01;19.90;76.40
4501;DHT22;2263;54.654;9.410;2023-07-20T14:23:35;19.90;76.40
4501;DHT22;2263;54.654;9.410;2023-07-20T14:26:03;19.90;76.70
4501;DHT22;2263;54.654;9.410;2023-07-20T14:28:37;19.90;77.10
4501;DHT22;2263;54.654;9.410;2023-07-20T14:31:05;19.90;76.70
4501;DHT22;2263;54.654;9.410;2023-07-20T14:33:33;19.90;76.80
4501;DHT22;2263;54.654;9.410;2023-07-20T14:36:03;19.90;76.90
4501;DHT22;2263;54.654;9.410;2023-07-20T14:38:33;19.90;77.20
4501;DHT22;2263;54.654;9.410;2023-07-20T14:41:01;19.90;76.70
4501;DHT22;2263;54.654;9.410;2023-07-20T14:43:29;19.90;76.70
4501;DHT22;2263;54.654;9.410;2023-07-20T14:45:57;19.90;76.60
4501;DHT22;2263;54.654;9.410;2023-07-20T14:48:24;20.00;76.80
4501;DHT22;2263;54.654;9.410;2023-07-20T14:50:52;20.00;76.80
4501;DHT22;2263;54.654;9.410;2023-07-20T14:53:31;20.00;76.70
4501;DHT22;2263;54.654;9.410;2023-07-20T14:56:01;20.00;76.70
4501;DHT22;2263;54.654;9.410;2023-07-20T14:58:31;20.00;76.70
4501;DHT22;2263;54.654;9.410;2023-07-20T15:01:02;20.00;76.60
4501;DHT22;2263;54.654;9.410;2023-07-20T15:03:30;20.00;76.60
4501;DHT22;2263;54.654;9.410;2023-07-20T15:05:58;20.00;76.50
4501;DHT22;2263;54.654;9.410;2023-07-20T15:08:26;20.00;76.80
4501;DHT22;2263;54.654;9.410;2023-07-20T15:10:53;20.00;76.60
4501;DHT22;2263;54.654;9.410;2023-07-20T15:13:22;19.90;76.40
4501;DHT22;2263;54.654;9.410;2023-07-20T15:15:49;19.90;76.30
4501;DHT22;2263;54.654;9.410;2023-07-20T15:18:17;20.00;76.30
4501;DHT22;2263;54.654;9.410;2023-07-20T15:20:51;19.90;76.20
4501;DHT22;2263;54.654;9.410;2023-07-20T15:23:21;19.90;76.20
4501;DHT22;2263;54.654;9.410;2023-07-20T15:25:49;19.90;76.20
4501;DHT22;2263;54.654;9.410;2023-07-20T15:28:18;19.90;76.10
4501;DHT22;2263;54.654;9.410;2023-07-20T15:30:45;20.00;76.20
4501;DHT22;2263;54.654;9.410;2023-07-20T15:33:16;20.00;76.20
4501;DHT22;2263;54.654;9.410;2023-07-20T15:35:44;20.00;76.20
4501;DHT22;2263;54.654;9.410;2023-07-20T15:38:12;20.00;76.20
4501;DHT22;2263;54.654;9.410;2023-07-20T15:40:43;19.90;76.10
4501;DHT22;2263;54.654;9.410;2023-07-20T15:43:11;19.90;76.40
4501;DHT22;2263;54.654;9.410;2023-07-20T15:45:41;19.90;76.50
4501;DHT22;2263;54.654;9.410;2023-07-20T15:48:09;19.90;76.40
4501;DHT22;2263;54.654;9.410;2023-07-20T15:50:37;19.90;76.10
4501;DHT22;2263;54.654;9.410;2023-07-20T15:53:05;19.90;76.10
4501;DHT22;2263;54.654;9.410;2023-07-20T15:55:33;20.00;76.10
4501;DHT22;2263;54.654;9.410;2023-07-20T15:58:02;20.00;76.10
4501;DHT22;2263;54.654;9.410;2023-07-20T16:00:30;20.00;76.10
4501;DHT22;2263;54.654;9.410;2023-07-20T16:02:57;20.00;75.90
4501;DHT22;2263;54.654;9.410;2023-07-20T16:05:25;20.00;75.90
4501;DHT22;2263;54.654;9.410;2023-07-20T16:07:56;20.00;76.20
4501;DHT22;2263;54.654;9.410;2023-07-20T16:10:24;20.00;75.60
4501;DHT22;2263;54.654;9.410;2023-07-20T16:12:51;20.00;75.50
4501;DHT22;2263;54.654;9.410;2023-07-20T16:15:19;20.00;75.50
4501;DHT22;2263;54.654;9.410;2023-07-20T16:17:49;20.00;74.90
4501;DHT22;2263;54.654;9.410;2023-07-20T16:20:17;19.90;74.30
4501;DHT22;2263;54.654;9.410;2023-07-20T16:22:45;20.00;74.50
4501;DHT22;2263;54.654;9.410;2023-07-20T16:25:13;20.10;74.30
4501;DHT22;2263;54.654;9.410;2023-07-20T16:27:40;20.10;74.60
4501;DHT22;2263;54.654;9.410;2023-07-20T16:30:08;20.10;74.60
4501;DHT22;2263;54.654;9.410;2023-07-20T16:32:36;20.20;74.80
4501;DHT22;2263;54.654;9.410;2023-07-20T16:35:04;20.20;73.80